createdAt,value
2017-07-16T19:03:59.891Z,979.87
2017-07-16T19:05:02.242Z,979.94
2017-07-16T19:06:04.585Z,980.01
2017-07-16T19:07:06.913Z,979.96
2017-07-16T19:08:09.256Z,979.79
2017-07-16T19:09:12.197Z,979.92
2017-07-16T19:10:14.536Z,979.79
2017-07-16T19:11:16.864Z,979.70
2017-07-16T19:12:19.192Z,979.59
2017-07-16T19:13:21.569Z,979.88
2017-07-16T19:14:26.398Z,980.18
2017-07-16T19:15:28.740Z,980.10
2017-07-16T19:16:31.104Z,980.03
2017-07-16T19:17:33.462Z,979.93
2017-07-16T19:18:35.826Z,980.05
2017-07-16T19:19:38.991Z,980.62
2017-07-16T19:20:41.344Z,980.08
2017-07-16T19:21:43.684Z,980.20
2017-07-16T19:22:46.015Z,979.98
2017-07-16T19:23:48.400Z,980.15
2017-07-16T19:24:53.240Z,980.09
2017-07-16T19:25:55.582Z,980.03
2017-07-16T19:26:57.912Z,979.94
2017-07-16T19:28:00.269Z,979.61
2017-07-16T19:29:02.849Z,979.85
2017-07-16T19:30:05.782Z,979.94
2017-07-16T19:31:08.152Z,980.57
2017-07-16T19:32:10.491Z,979.66
2017-07-16T19:33:12.854Z,979.79
2017-07-16T19:34:15.215Z,979.81
2017-07-16T19:35:18.165Z,979.99
2017-07-16T19:36:20.498Z,979.97
2017-07-16T19:37:22.857Z,979.98
2017-07-16T19:38:25.225Z,980.13
2017-07-16T19:39:27.572Z,979.87
2017-07-16T19:40:30.516Z,979.37
2017-07-16T19:41:32.844Z,979.65
2017-07-16T19:42:35.185Z,980.09
2017-07-16T19:43:37.519Z,980.27
2017-07-16T19:44:40.081Z,980.17
2017-07-16T19:45:43.238Z,979.96
2017-07-16T19:46:45.597Z,980.12
2017-07-16T19:47:47.937Z,979.95
2017-07-16T19:48:50.304Z,979.97
2017-07-16T19:49:52.649Z,979.85
2017-07-16T19:50:55.617Z,979.36
2017-07-16T19:51:57.982Z,979.09
2017-07-16T19:53:00.351Z,979.05
2017-07-16T19:54:02.712Z,979.38
2017-07-16T19:55:05.278Z,979.20
2017-07-16T19:56:08.244Z,979.44
2017-07-16T19:57:10.610Z,979.33
2017-07-16T19:58:12.980Z,978.88
2017-07-16T19:59:15.344Z,978.82
2017-07-16T20:00:17.706Z,978.71
2017-07-16T20:01:20.677Z,978.75
2017-07-16T20:02:23.241Z,979.22
2017-07-16T20:03:25.607Z,979.26
2017-07-16T20:04:27.963Z,978.79
2017-07-16T20:05:30.304Z,978.96
2017-07-16T20:06:35.165Z,978.81
2017-07-16T20:07:37.496Z,978.56
2017-07-16T20:08:39.830Z,978.54
2017-07-16T20:09:42.198Z,978.61
2017-07-16T20:10:44.554Z,978.76
2017-07-16T20:11:47.509Z,978.67
2017-07-16T20:12:49.850Z,978.51
2017-07-16T20:13:52.217Z,978.38
2017-07-16T20:14:54.582Z,978.22
2017-07-16T20:15:56.913Z,978.20
2017-07-16T20:16:59.882Z,978.20
2017-07-16T20:18:02.442Z,978.21
2017-07-16T20:19:04.811Z,978.14
2017-07-16T20:20:07.173Z,978.12
2017-07-16T20:21:09.517Z,978.09
2017-07-16T20:22:14.383Z,978.15
2017-07-16T20:23:16.745Z,978.18
2017-07-16T20:24:19.305Z,978.16
2017-07-16T20:25:21.648Z,978.24
2017-07-16T20:26:24.018Z,978.12
2017-07-16T20:27:26.946Z,978.03
2017-07-16T20:28:29.303Z,977.89
2017-07-16T20:29:31.669Z,977.94
2017-07-16T20:30:34.006Z,977.95
2017-07-16T20:31:36.350Z,978.01
2017-07-16T20:32:39.314Z,978.19
2017-07-16T20:33:41.677Z,978.07
2017-07-16T20:34:44.026Z,978.11
2017-07-16T20:35:46.374Z,977.98
2017-07-16T20:36:48.936Z,978.04
2017-07-16T20:37:51.899Z,977.96
2017-07-16T20:38:54.238Z,977.89
2017-07-16T20:39:56.583Z,977.90
2017-07-16T20:40:58.919Z,977.84
2017-07-16T20:42:01.286Z,977.86
2017-07-16T20:43:04.276Z,978.05
2017-07-16T20:44:06.818Z,977.93
2017-07-16T20:45:09.148Z,977.94
2017-07-16T20:46:11.513Z,977.95
2017-07-16T20:47:13.831Z,977.81
2017-07-16T20:48:17.147Z,978.10
2017-07-16T20:49:19.503Z,977.96
2017-07-16T20:50:21.858Z,977.83
2017-07-16T20:51:24.231Z,977.77
2017-07-16T20:52:26.582Z,977.77
2017-07-16T20:53:29.503Z,978.05
2017-07-16T20:54:31.822Z,978.12
2017-07-16T20:55:34.181Z,978.21
2017-07-16T20:56:36.518Z,978.09
2017-07-16T20:57:38.860Z,977.81
2017-07-16T20:58:43.727Z,978.26
2017-07-16T20:59:46.074Z,977.76
2017-07-16T21:00:48.432Z,977.80
2017-07-16T21:01:50.766Z,978.08
2017-07-16T21:02:53.130Z,978.07
2017-07-16T21:03:56.084Z,977.93
2017-07-16T21:04:58.437Z,977.96
2017-07-16T21:06:00.993Z,977.61
2017-07-16T21:07:03.327Z,977.93
2017-07-16T21:08:05.683Z,977.84
2017-07-16T21:09:08.619Z,977.51
2017-07-16T21:10:10.981Z,977.58
2017-07-16T21:11:13.340Z,977.90
2017-07-16T21:12:15.680Z,978.19
2017-07-16T21:13:18.236Z,978.19
2017-07-16T21:14:23.148Z,978.09
2017-07-16T21:15:25.510Z,978.04
2017-07-16T21:16:27.866Z,978.17
2017-07-16T21:17:30.229Z,978.13
2017-07-16T21:18:32.577Z,978.11
2017-07-16T21:19:35.507Z,977.97
2017-07-16T21:20:37.837Z,978.04
2017-07-16T21:21:40.196Z,978.04
2017-07-16T21:22:42.557Z,977.77
2017-07-16T21:23:44.899Z,977.56
2017-07-16T21:24:47.832Z,977.40
2017-07-16T21:25:50.186Z,977.44
2017-07-16T21:26:52.511Z,977.51
2017-07-16T21:27:55.071Z,977.50
2017-07-16T21:28:57.628Z,977.44
2017-07-16T21:30:00.585Z,977.82
2017-07-16T21:31:02.913Z,977.83
2017-07-16T21:32:05.473Z,977.54
2017-07-16T21:33:07.809Z,977.90
2017-07-16T21:34:10.138Z,978.05
2017-07-16T21:35:13.097Z,977.95
2017-07-16T21:36:15.440Z,978.01
2017-07-16T21:37:17.804Z,978.10
2017-07-16T21:38:20.142Z,978.18
2017-07-16T21:39:22.501Z,978.52
2017-07-16T21:40:25.444Z,978.74
2017-07-16T21:41:28.003Z,978.71
2017-07-16T21:42:30.362Z,978.02
2017-07-16T21:43:33.891Z,977.60
2017-07-16T21:44:36.251Z,978.03
2017-07-16T21:45:39.197Z,978.44
2017-07-16T21:46:41.544Z,978.69
2017-07-16T21:47:43.906Z,978.89
2017-07-16T21:48:46.266Z,978.41
2017-07-16T21:49:48.625Z,978.16
2017-07-16T21:50:51.598Z,978.31
2017-07-16T21:51:53.948Z,978.39
2017-07-16T21:52:56.509Z,978.19
2017-07-16T21:53:58.862Z,977.78
2017-07-16T21:55:01.194Z,977.72
2017-07-16T21:56:04.207Z,984.15
2017-07-16T21:57:06.567Z,977.58
2017-07-16T21:58:08.921Z,978.60
2017-07-16T21:59:11.272Z,977.59
2017-07-16T22:00:13.632Z,984.15
2017-07-16T22:01:16.597Z,980.25
2017-07-16T22:02:18.956Z,983.79
2017-07-16T22:03:21.511Z,982.91
2017-07-16T22:04:23.855Z,982.25
2017-07-16T22:05:26.423Z,981.86
2017-07-16T22:06:29.377Z,977.71
2017-07-16T22:07:31.731Z,980.79
2017-07-16T22:08:34.087Z,978.22
2017-07-16T22:09:36.451Z,980.32
2017-07-16T22:10:38.782Z,977.95
2017-07-16T22:11:41.770Z,977.36
2017-07-16T22:12:44.134Z,977.74
2017-07-16T22:13:46.486Z,977.47
2017-07-16T22:14:48.818Z,977.44
2017-07-16T22:15:51.180Z,977.24
2017-07-16T22:16:54.109Z,977.39
2017-07-16T22:17:56.461Z,977.24
2017-07-16T22:18:58.787Z,977.14
2017-07-16T22:20:01.151Z,977.05
2017-07-16T22:21:03.714Z,977.02
2017-07-16T22:22:06.679Z,977.01
2017-07-16T22:23:10.198Z,977.05
2017-07-16T22:24:12.557Z,977.06
2017-07-16T22:25:14.915Z,977.03
2017-07-16T22:26:17.261Z,977.07
2017-07-16T22:27:20.141Z,977.07
2017-07-16T22:28:22.471Z,977.05
2017-07-16T22:29:24.813Z,977.04
2017-07-16T22:30:27.150Z,977.01
2017-07-16T22:31:29.477Z,977.06
2017-07-16T22:32:32.632Z,977.05
2017-07-16T22:33:34.955Z,977.09
2017-07-16T22:34:37.287Z,977.07
2017-07-16T22:35:39.645Z,977.05
2017-07-16T22:36:41.986Z,977.14
2017-07-16T22:37:46.844Z,977.18
2017-07-16T22:38:49.173Z,977.26
2017-07-16T22:39:51.527Z,977.17
2017-07-16T22:40:53.879Z,977.16
2017-07-16T22:41:56.200Z,977.17
2017-07-16T22:42:59.141Z,977.12
2017-07-16T22:44:01.498Z,977.09
2017-07-16T22:45:03.856Z,977.10
2017-07-16T22:46:06.195Z,977.11
2017-07-16T22:47:08.549Z,977.12
2017-07-16T22:48:11.510Z,977.09
2017-07-16T22:49:13.845Z,977.11
2017-07-16T22:50:16.180Z,977.15
2017-07-16T22:51:18.736Z,977.10
2017-07-16T22:52:21.079Z,977.11
2017-07-16T22:53:24.038Z,977.18
2017-07-16T22:54:26.567Z,977.14
2017-07-16T22:55:29.125Z,977.13
2017-07-16T22:56:31.482Z,977.11
2017-07-16T22:57:33.833Z,977.09
2017-07-16T22:58:36.806Z,977.12
2017-07-16T22:59:39.160Z,977.06
2017-07-16T23:00:41.522Z,977.07
2017-07-16T23:01:43.891Z,977.08
2017-07-16T23:02:46.211Z,977.10
2017-07-16T23:03:49.188Z,977.09
2017-07-16T23:04:51.543Z,977.09
2017-07-16T23:05:53.891Z,977.06
2017-07-16T23:06:56.215Z,977.09
2017-07-16T23:07:58.582Z,977.11
2017-07-16T23:09:03.613Z,977.07
2017-07-16T23:10:05.943Z,977.08
2017-07-16T23:11:08.276Z,977.01
2017-07-16T23:12:10.631Z,977.06
2017-07-16T23:13:12.963Z,977.03
2017-07-16T23:14:15.895Z,977.04
2017-07-16T23:15:18.255Z,977.00
2017-07-16T23:16:20.606Z,977.01
2017-07-16T23:17:22.944Z,976.95
2017-07-16T23:18:25.305Z,976.93
2017-07-16T23:19:28.247Z,976.98
2017-07-16T23:20:30.585Z,976.90
2017-07-16T23:21:32.918Z,976.91
2017-07-16T23:22:35.249Z,976.88
2017-07-16T23:23:37.602Z,976.86
2017-07-16T23:24:40.764Z,976.92
2017-07-16T23:25:43.116Z,976.88
2017-07-16T23:26:45.439Z,976.88
2017-07-16T23:27:47.794Z,976.89
2017-07-16T23:28:50.132Z,976.89
2017-07-16T23:29:53.289Z,976.94
2017-07-16T23:30:55.614Z,976.91
2017-07-16T23:31:57.963Z,976.98
2017-07-16T23:33:00.308Z,976.90
2017-07-16T23:34:02.639Z,976.94
2017-07-16T23:35:05.601Z,976.91
2017-07-16T23:36:07.954Z,976.89
2017-07-16T23:37:10.278Z,976.88
2017-07-16T23:38:12.607Z,976.88
2017-07-16T23:39:14.933Z,976.85
2017-07-16T23:41:22.305Z,976.81
2017-07-16T23:42:24.632Z,976.86
2017-07-16T23:43:26.975Z,976.86
2017-07-16T23:44:29.305Z,976.80
2017-07-16T23:45:32.269Z,976.86
2017-07-16T23:46:34.590Z,976.88
2017-07-16T23:47:36.907Z,976.84
2017-07-16T23:48:39.268Z,976.86
2017-07-16T23:49:41.621Z,976.90
2017-07-16T23:50:44.553Z,976.86
2017-07-16T23:51:46.872Z,976.87
2017-07-16T23:52:49.425Z,976.82
2017-07-16T23:53:51.781Z,976.91
2017-07-16T23:54:54.101Z,976.93
2017-07-16T23:55:57.052Z,976.97
2017-07-16T23:56:59.371Z,976.96
2017-07-16T23:58:01.721Z,976.98
2017-07-16T23:59:04.048Z,977.00
